Time;durP1;ratioP1;P1;durP2;ratioP2;P2;SDS_P1;SDS_P2;PMS_P1;PMS_P2;Temp;Humidity;BMP_temperature;BMP_pressure;BME280_temperature;BME280_humidity;BME280_pressure;Samples;Min_cycle;Max_cycle;Signal;HPM_P1;HPM_P2
2022/01/15 00:02:12;;;;;;;9.25;4.88;;;0.70;68.30;;;;;;5053741;28;20052;-75
2022/01/15 00:04:38;;;;;;;9.15;5.07;;;0.70;68.30;;;;;;5054009;28;20025;-75
2022/01/15 00:07:04;;;;;;;7.05;4.68;;;0.70;68.40;;;;;;5082489;28;20028;-75
2022/01/15 00:09:29;;;;;;;8.73;4.18;;;0.60;68.20;;;;;;5063676;28;20037;-75
2022/01/15 00:11:55;;;;;;;6.78;4.07;;;0.60;68.40;;;;;;5054178;28;20028;-75
2022/01/15 00:14:26;;;;;;;8.77;4.55;;;0.60;68.40;;;;;;5054975;28;20390;-75
2022/01/15 00:17:06;;;;;;;7.25;4.28;;;0.60;68.30;;;;;;5054421;28;20060;-75
2022/01/15 00:19:41;;;;;;;8.95;4.28;;;0.60;68.20;;;;;;5054554;28;20032;-75
2022/01/15 00:22:16;;;;;;;7.35;4.47;;;0.60;68.20;;;;;;5062177;28;20029;-75
2022/01/15 00:24:43;;;;;;;7.35;4.32;;;0.50;68.20;;;;;;5062778;28;20070;-75
2022/01/15 00:27:09;;;;;;;6.75;4.40;;;0.60;68.20;;;;;;5078689;28;20025;-74
2022/01/15 00:29:36;;;;;;;7.40;4.45;;;0.50;68.20;;;;;;5053674;28;20493;-74
2022/01/15 00:32:04;;;;;;;7.95;4.43;;;0.50;68.10;;;;;;5054300;28;20025;-75
2022/01/15 00:34:31;;;;;;;7.63;4.05;;;0.50;68.30;;;;;;5054396;28;20025;-75
2022/01/15 00:36:56;;;;;;;5.65;3.70;;;0.50;68.20;;;;;;5052931;28;20060;-75
2022/01/15 00:39:22;;;;;;;5.32;3.72;;;0.50;68.10;;;;;;5053625;28;20045;-75
2022/01/15 00:41:48;;;;;;;9.80;4.22;;;0.40;68.10;;;;;;5054308;28;20508;-75
2022/01/15 00:44:14;;;;;;;6.57;3.88;;;0.60;68.30;;;;;;5034626;28;20022;-75
2022/01/15 00:46:40;;;;;;;5.75;3.78;;;0.40;68.20;;;;;;5043283;28;20047;-75
2022/01/15 00:49:05;;;;;;;7.03;3.70;;;0.40;68.30;;;;;;5053558;28;20029;-75
2022/01/15 00:51:31;;;;;;;6.53;3.35;;;0.40;68.20;;;;;;5052527;28;20481;-75
2022/01/15 00:53:57;;;;;;;6.97;3.85;;;0.40;68.10;;;;;;5058448;28;20032;-75
2022/01/15 00:56:22;;;;;;;8.75;3.83;;;0.60;68.40;;;;;;5064669;28;20042;-75
2022/01/15 00:58:48;;;;;;;6.32;3.88;;;0.40;68.20;;;;;;5053802;28;20031;-75
2022/01/15 01:01:14;;;;;;;11.13;3.95;;;0.30;68.10;;;;;;5052461;28;20052;-75
2022/01/15 01:03:39;;;;;;;7.55;3.53;;;0.30;68.30;;;;;;5049766;28;20045;-75
2022/01/15 01:06:05;;;;;;;5.80;3.53;;;0.30;68.60;;;;;;5055880;28;20103;-75
2022/01/15 01:08:31;;;;;;;7.53;3.70;;;0.30;68.90;;;;;;5053398;28;20033;-75
2022/01/15 01:10:59;;;;;;;7.85;3.70;;;0.30;68.80;;;;;;5051693;28;20048;-75
2022/01/15 01:22:30;;;;;;;7.15;3.95;;;0.20;68.20;;;;;;5053955;28;20428;-75
2022/01/15 01:24:29;;;;;;;9.02;4.45;;;0.30;68.50;;;;;;5052261;28;20029;-75
2022/01/15 01:32:39;;;;;;;8.65;3.80;;;0.20;68.40;;;;;;5051737;28;20404;-75
2022/01/15 01:34:39;;;;;;;7.50;4.20;;;0.20;68.60;;;;;;5050265;28;20037;-75
2022/01/15 01:39:51;;;;;;;7.30;3.97;;;0.20;68.40;;;;;;5059387;28;20123;-75
2022/01/15 01:45:06;;;;;;;6.38;3.50;;;0.10;68.40;;;;;;5053523;28;20044;-75
2022/01/15 01:47:39;;;;;;;6.82;3.08;;;0.10;68.50;;;;;;5051989;28;20033;-75
2022/01/15 01:50:07;;;;;;;6.47;3.80;;;0.10;68.40;;;;;;5050631;28;20052;-75
2022/01/15 01:52:33;;;;;;;5.35;3.58;;;0.10;68.30;;;;;;5051793;28;20292;-75
2022/01/15 01:54:58;;;;;;;5.45;3.45;;;0.10;68.20;;;;;;5053053;28;20037;-75
2022/01/15 01:57:24;;;;;;;12.88;3.72;;;0.30;68.60;;;;;;5051579;28;20097;-75
2022/01/15 01:59:50;;;;;;;10.55;4.00;;;0.10;68.50;;;;;;5053372;28;20542;-75
2022/01/15 02:02:16;;;;;;;5.82;3.30;;;0.10;68.50;;;;;;5051976;28;20065;-75
2022/01/15 02:04:41;;;;;;;6.40;3.72;;;0.30;68.60;;;;;;5040082;28;20163;-76
2022/01/15 02:07:07;;;;;;;7.53;3.50;;;0.10;68.40;;;;;;5048470;28;20055;-76
2022/01/15 02:09:33;;;;;;;6.20;3.58;;;0.10;68.30;;;;;;5052015;28;20174;-75
2022/01/15 02:11:58;;;;;;;7.32;3.35;;;0.20;68.30;;;;;;5059826;28;20024;-76
2022/01/15 02:14:25;;;;;;;6.47;3.40;;;0.00;68.50;;;;;;5059846;28;20529;-76
2022/01/15 02:16:51;;;;;;;6.05;3.25;;;0.00;68.50;;;;;;5055960;28;20040;-76
2022/01/15 02:19:17;;;;;;;7.38;3.47;;;0.00;68.30;;;;;;5055152;28;20499;-75
2022/01/15 02:24:17;;;;;;;7.55;3.00;;;0.00;68.50;;;;;;5051691;28;20075;-75
2022/01/15 02:26:43;;;;;;;5.63;3.33;;;0.00;68.30;;;;;;5056095;28;20424;-75
2022/01/15 02:29:09;;;;;;;6.18;3.35;;;0.00;68.30;;;;;;5034090;28;20053;-75
2022/01/15 02:31:36;;;;;;;6.93;3.47;;;-0.10;68.60;;;;;;5051052;28;20051;-75
2022/01/15 02:34:04;;;;;;;4.13;2.95;;;-0.10;68.60;;;;;;5050988;28;20116;-75
2022/01/15 02:36:33;;;;;;;6.13;3.72;;;-0.10;68.60;;;;;;5050718;28;20041;-75
2022/01/15 02:38:59;;;;;;;8.68;3.65;;;-0.10;68.60;;;;;;5051307;28;20088;-75
2022/01/15 02:41:32;;;;;;;6.97;3.58;;;-0.10;68.50;;;;;;5054321;28;20047;-75
2022/01/15 02:44:00;;;;;;;4.88;3.17;;;-0.10;68.40;;;;;;5065106;28;20052;-75
2022/01/15 02:48:57;;;;;;;4.75;2.90;;;-0.10;68.30;;;;;;5052378;28;20044;-75
2022/01/15 02:51:25;;;;;;;6.60;3.55;;;-0.10;68.50;;;;;;5051105;28;20029;-75
2022/01/15 02:53:55;;;;;;;5.53;3.30;;;-0.20;68.50;;;;;;5052158;28;20049;-76
2022/01/15 02:56:50;;;;;;;6.47;3.25;;;-0.20;68.50;;;;;;5051716;28;20037;-76
2022/01/15 02:59:17;;;;;;;;;;;-0.10;68.60;;;;;;5056435;28;20040;-75
2022/01/15 03:01:43;;;;;;;5.10;3.33;;;-0.20;68.60;;;;;;5046784;28;20414;-76
2022/01/15 03:04:09;;;;;;;5.78;3.47;;;-0.20;68.10;;;;;;5043644;28;20037;-75
2022/01/15 03:06:35;;;;;;;5.28;3.20;;;-0.20;68.30;;;;;;5046479;28;20071;-76
2022/01/15 03:09:00;;;;;;;4.68;2.58;;;0.00;68.50;;;;;;5051105;28;20029;-75
2022/01/15 03:11:28;;;;;;;7.07;3.13;;;-0.20;68.50;;;;;;5058545;28;20025;-76
2022/01/15 03:13:54;;;;;;;3.75;2.88;;;-0.20;68.60;;;;;;5052810;28;20086;-75
2022/01/15 03:16:21;;;;;;;5.70;3.53;;;-0.20;68.50;;;;;;5053970;28;20044;-75
2022/01/15 03:18:47;;;;;;;8.35;3.72;;;-0.10;68.60;;;;;;5056334;28;20025;-76
2022/01/15 03:21:13;;;;;;;7.18;3.50;;;-0.30;68.50;;;;;;5054734;28;20066;-75
2022/01/15 03:23:39;;;;;;;4.57;3.08;;;-0.30;68.40;;;;;;5055116;28;20023;-75
2022/01/15 03:26:08;;;;;;;4.85;3.17;;;-0.30;68.40;;;;;;5065167;28;20025;-75
2022/01/15 03:28:34;;;;;;;4.68;3.38;;;-0.30;68.50;;;;;;5056912;28;20041;-75
2022/01/15 03:31:00;;;;;;;5.00;3.17;;;-0.20;68.40;;;;;;5053154;28;20035;-75
2022/01/15 03:33:26;;;;;;;5.60;3.10;;;-0.30;68.30;;;;;;5047412;28;20637;-75
2022/01/15 03:35:53;;;;;;;6.00;3.20;;;-0.30;68.20;;;;;;5037269;28;20396;-75
2022/01/15 03:38:19;;;;;;;7.13;3.38;;;-0.20;68.20;;;;;;5054617;28;20048;-76
2022/01/15 03:40:44;;;;;;;7.85;3.35;;;-0.10;68.30;;;;;;5055861;28;20064;-76
2022/01/15 03:43:10;;;;;;;7.13;3.05;;;-0.30;68.30;;;;;;5055617;28;20024;-75
2022/01/15 03:45:36;;;;;;;6.30;3.20;;;-0.30;68.30;;;;;;5054133;28;20029;-75
2022/01/15 03:48:02;;;;;;;7.57;3.03;;;-0.30;68.30;;;;;;5054633;28;20028;-75
2022/01/15 03:50:28;;;;;;;6.18;2.88;;;-0.20;68.40;;;;;;5054761;28;20051;-75
2022/01/15 03:52:54;;;;;;;5.80;3.20;;;-0.30;68.30;;;;;;5055364;28;20067;-75
2022/01/15 03:55:20;;;;;;;4.45;3.15;;;-0.10;68.30;;;;;;5058496;28;20104;-75
2022/01/15 03:57:46;;;;;;;6.43;3.28;;;-0.40;68.10;;;;;;5054800;28;20064;-76
2022/01/15 04:00:21;;;;;;;6.13;3.67;;;-0.30;68.20;;;;;;5055418;28;20054;-75
2022/01/15 04:02:47;;;;;;;;;;;-0.40;68.30;;;;;;5055732;28;20036;-76
2022/01/15 04:05:13;;;;;;;8.43;3.17;;;-0.30;68.60;;;;;;5054884;28;19908;-76
2022/01/15 04:07:39;;;;;;;6.55;3.30;;;-0.40;68.10;;;;;;5054789;28;20021;-75
2022/01/15 04:10:07;;;;;;;4.07;3.10;;;-0.40;68.10;;;;;;5053880;28;20031;-75
2022/01/15 04:12:33;;;;;;;6.55;3.28;;;-0.40;68.20;;;;;;5054890;28;20488;-75
2022/01/15 04:14:59;;;;;;;6.57;3.78;;;-0.40;68.30;;;;;;5054339;28;20103;-76
2022/01/15 04:17:25;;;;;;;8.95;3.95;;;-0.50;68.40;;;;;;5054844;28;20100;-75
2022/01/15 04:19:51;;;;;;;6.35;3.67;;;-0.50;68.40;;;;;;5041012;28;20029;-75
2022/01/15 04:22:17;;;;;;;8.38;3.88;;;-0.50;68.40;;;;;;5053019;28;20047;-75
2022/01/15 04:24:43;;;;;;;5.65;3.33;;;-0.50;68.50;;;;;;5061657;28;20064;-75
2022/01/15 04:27:09;;;;;;;6.00;3.50;;;-0.50;68.60;;;;;;5050965;28;20056;-75
2022/01/15 04:29:35;;;;;;;6.93;3.88;;;-0.50;68.50;;;;;;5050600;28;20475;-75
2022/01/15 04:32:02;;;;;;;6.60;3.60;;;-0.50;68.60;;;;;;5055007;28;20128;-75
2022/01/15 04:34:29;;;;;;;11.93;4.35;;;-0.50;68.60;;;;;;5054731;28;20029;-75
2022/01/15 04:37:13;;;;;;;7.75;3.60;;;-0.50;68.50;;;;;;5052469;28;20070;-75
2022/01/15 04:39:39;;;;;;;8.27;3.92;;;-0.50;69.40;;;;;;5053091;28;20060;-75
2022/01/15 04:42:05;;;;;;;6.57;3.50;;;-0.40;68.80;;;;;;5059444;28;20036;-75
2022/01/15 04:44:31;;;;;;;7.63;3.72;;;-0.50;68.60;;;;;;5054500;28;20033;-75
2022/01/15 04:46:59;;;;;;;5.63;3.40;;;-0.50;68.50;;;;;;5053107;28;20035;-76
2022/01/15 04:49:25;;;;;;;5.35;3.42;;;-0.50;68.70;;;;;;5054470;28;20025;-76
2022/01/15 04:51:50;;;;;;;5.55;3.72;;;-0.40;68.80;;;;;;5053675;28;20056;-76
2022/01/15 04:54:16;;;;;;;6.85;3.80;;;-0.50;68.70;;;;;;5052497;28;20350;-76
2022/01/15 04:56:42;;;;;;;7.07;3.95;;;-0.60;68.50;;;;;;5059806;28;20061;-76
2022/01/15 04:59:07;;;;;;;5.22;3.90;;;-0.60;68.50;;;;;;5052542;28;20097;-75
2022/01/15 05:01:33;;;;;;;5.85;3.58;;;-0.60;68.50;;;;;;5054176;28;20029;-75
2022/01/15 05:03:58;;;;;;;7.47;4.00;;;-0.40;68.60;;;;;;5053999;28;20048;-75
2022/01/15 05:06:24;;;;;;;6.43;3.70;;;-0.60;68.50;;;;;;5050638;28;20025;-75
2022/01/15 05:09:00;;;;;;;4.95;3.25;;;-0.60;68.50;;;;;;5045430;28;20021;-75
2022/01/15 05:11:31;;;;;;;5.95;3.67;;;-0.60;68.50;;;;;;5036279;28;20068;-76
2022/01/15 05:13:56;;;;;;;7.63;4.00;;;-0.60;68.50;;;;;;5034200;28;20026;-76
2022/01/15 05:16:22;;;;;;;9.48;4.40;;;-0.40;68.40;;;;;;5040535;28;20075;-75
2022/01/15 05:18:48;;;;;;;8.18;4.63;;;-0.60;68.30;;;;;;5038842;28;20151;-75
2022/01/15 05:21:13;;;;;;;8.43;4.45;;;-0.60;68.20;;;;;;5053780;28;20025;-75
2022/01/15 05:23:39;;;;;;;7.82;4.47;;;-0.60;68.30;;;;;;5035651;28;20049;-75
2022/01/15 05:26:05;;;;;;;7.00;4.43;;;-0.60;68.20;;;;;;5049890;28;20039;-75
2022/01/15 05:28:30;;;;;;;8.85;4.75;;;-0.60;68.20;;;;;;5061376;28;20067;-75
2022/01/15 05:30:56;;;;;;;7.55;4.55;;;-0.60;68.10;;;;;;5070204;28;20028;-75
2022/01/15 05:33:21;;;;;;;9.52;4.60;;;-0.60;68.10;;;;;;5073567;28;20025;-75
2022/01/15 05:35:47;;;;;;;7.07;3.95;;;-0.70;68.00;;;;;;5051450;28;20049;-75
2022/01/15 05:38:13;;;;;;;7.32;4.50;;;-0.60;68.10;;;;;;5049839;28;20074;-75
2022/01/15 05:40:39;;;;;;;12.35;5.32;;;-0.60;68.10;;;;;;5053595;28;20021;-75
2022/01/15 05:43:04;;;;;;;8.65;4.35;;;-0.60;68.30;;;;;;5051847;28;20033;-75
2022/01/15 05:45:30;;;;;;;9.48;4.30;;;-0.70;68.20;;;;;;5053213;28;20035;-75
2022/01/15 05:47:56;;;;;;;7.53;4.38;;;-0.70;68.10;;;;;;5052979;28;20057;-76
2022/01/15 05:50:22;;;;;;;9.05;4.38;;;-0.70;68.00;;;;;;5052054;28;20029;-76
2022/01/15 05:52:47;;;;;;;7.65;4.70;;;-0.70;67.90;;;;;;5052886;28;20029;-75
2022/01/15 05:55:13;;;;;;;11.05;6.05;;;-0.70;67.90;;;;;;5053569;28;20032;-75
2022/01/15 05:57:39;;;;;;;10.80;6.13;;;-0.70;67.80;;;;;;5051613;28;20074;-76
2022/01/15 06:00:08;;;;;;;11.07;6.55;;;-0.70;67.80;;;;;;5051976;28;20075;-75
2022/01/15 06:02:34;;;;;;;10.10;5.65;;;-0.70;67.90;;;;;;5052825;28;20418;-75
2022/01/15 06:05:00;;;;;;;9.77;5.60;;;-0.70;67.90;;;;;;5048111;28;20025;-75
2022/01/15 06:07:25;;;;;;;12.57;5.28;;;-0.80;67.90;;;;;;5052778;28;20485;-75
2022/01/15 06:09:51;;;;;;;11.45;5.72;;;-0.80;67.90;;;;;;5052733;28;20115;-75
2022/01/15 06:12:17;;;;;;;11.98;5.53;;;-0.80;68.00;;;;;;5052478;28;20036;-75
2022/01/15 06:14:42;;;;;;;12.90;6.07;;;-0.80;68.20;;;;;;5052083;28;20095;-75
2022/01/15 06:17:08;;;;;;;11.10;6.22;;;-0.80;68.10;;;;;;5051444;28;20492;-75
2022/01/15 06:19:36;;;;;;;11.80;6.07;;;-0.70;68.20;;;;;;5052687;28;20104;-75
2022/01/15 06:22:02;;;;;;;11.95;5.55;;;-0.80;68.10;;;;;;5050862;28;20513;-75
2022/01/15 06:24:28;;;;;;;9.30;5.72;;;-0.80;68.10;;;;;;5052375;28;20036;-75
2022/01/15 06:26:53;;;;;;;11.20;6.80;;;-0.80;68.20;;;;;;5052353;28;20108;-75
2022/01/15 06:29:20;;;;;;;15.98;6.28;;;-0.80;68.40;;;;;;5051862;28;20127;-75
2022/01/15 06:31:46;;;;;;;11.50;6.65;;;-0.80;68.40;;;;;;5065925;28;20112;-75
2022/01/15 06:34:11;;;;;;;14.90;7.47;;;-0.80;69.10;;;;;;5052085;28;20474;-75
2022/01/15 06:36:37;;;;;;;13.60;7.00;;;-0.80;68.50;;;;;;5051117;28;20521;-75
2022/01/15 06:39:03;;;;;;;14.07;7.00;;;-0.80;68.40;;;;;;5051861;28;20094;-75
2022/01/15 06:41:28;;;;;;;14.77;6.88;;;-0.60;68.60;;;;;;5051094;28;20119;-75
2022/01/15 06:43:54;;;;;;;15.18;8.00;;;-0.80;68.40;;;;;;5051261;28;20465;-75
2022/01/15 06:46:20;;;;;;;11.48;6.72;;;-0.80;68.30;;;;;;5052195;28;20385;-75
2022/01/15 06:48:45;;;;;;;14.68;7.10;;;-0.80;68.30;;;;;;5051603;28;20056;-75
2022/01/15 06:51:11;;;;;;;12.90;7.07;;;-0.80;68.40;;;;;;5064189;28;20499;-75
2022/01/15 06:53:36;;;;;;;14.48;6.93;;;-0.80;68.30;;;;;;5053063;28;20485;-75
2022/01/15 06:56:02;;;;;;;14.27;6.82;;;-0.80;68.30;;;;;;5050414;28;20395;-75
2022/01/15 06:58:28;;;;;;;15.00;7.38;;;-0.80;68.20;;;;;;5050485;28;20161;-75
2022/01/15 07:00:54;;;;;;;13.77;6.82;;;-0.80;68.30;;;;;;5051539;28;20033;-75
2022/01/15 07:03:19;;;;;;;13.98;7.22;;;-0.80;68.40;;;;;;5050090;28;20025;-76
2022/01/15 07:05:45;;;;;;;14.73;8.10;;;-0.80;68.40;;;;;;5043904;28;20029;-75
2022/01/15 07:08:11;;;;;;;14.00;7.43;;;-0.80;68.30;;;;;;5051934;28;20473;-75
2022/01/15 07:10:41;;;;;;;14.38;7.53;;;-0.80;68.20;;;;;;5051928;28;20041;-76
2022/01/15 07:13:07;;;;;;;16.17;8.18;;;-0.80;68.30;;;;;;5052007;28;20124;-75
2022/01/15 07:15:33;;;;;;;13.57;7.10;;;-0.80;68.50;;;;;;5054927;28;20175;-75
2022/01/15 07:17:59;;;;;;;15.55;6.72;;;-0.80;68.70;;;;;;5051739;28;20033;-75
2022/01/15 07:20:25;;;;;;;18.23;6.82;;;-0.80;68.70;;;;;;5050812;28;20386;-76
2022/01/15 07:22:51;;;;;;;14.45;7.60;;;-0.80;68.60;;;;;;5052526;28;20040;-76
2022/01/15 07:25:17;;;;;;;24.55;11.23;;;-0.80;68.50;;;;;;5053043;28;20029;-75
2022/01/15 07:27:43;;;;;;;27.85;12.95;;;-0.80;68.40;;;;;;5051128;28;20055;-75
2022/01/15 07:30:10;;;;;;;17.35;8.93;;;-0.70;68.40;;;;;;5051186;28;20041;-75
2022/01/15 07:32:37;;;;;;;19.20;8.48;;;-0.70;68.60;;;;;;5051431;28;20031;-75
2022/01/15 07:35:03;;;;;;;16.13;8.27;;;-0.70;68.60;;;;;;5058596;28;20045;-75
2022/01/15 07:37:30;;;;;;;20.67;8.55;;;-0.70;68.40;;;;;;5047422;28;20033;-76
2022/01/15 07:39:56;;;;;;;18.55;8.93;;;-0.70;68.40;;;;;;5052297;28;20025;-76
2022/01/15 07:42:22;;;;;;;14.30;7.63;;;-0.70;68.50;;;;;;5051125;28;20016;-76
2022/01/15 07:44:47;;;;;;;16.95;8.75;;;-0.60;68.80;;;;;;5052756;28;20032;-76
2022/01/15 07:47:13;;;;;;;17.25;9.40;;;-0.60;68.90;;;;;;5043712;28;20029;-76
2022/01/15 07:49:39;;;;;;;20.45;9.80;;;-0.50;69.00;;;;;;5050792;28;20025;-76
2022/01/15 07:52:05;;;;;;;25.08;12.38;;;-0.50;69.20;;;;;;5052883;28;20080;-76
2022/01/15 07:54:30;;;;;;;26.13;11.52;;;-0.50;69.30;;;;;;5062185;28;20433;-76
2022/01/15 07:56:58;;;;;;;19.92;10.90;;;-0.40;69.40;;;;;;5047189;28;20039;-76
2022/01/15 07:59:25;;;;;;;22.15;12.55;;;-0.30;69.40;;;;;;5034469;28;20071;-75
2022/01/15 08:01:50;;;;;;;25.00;13.57;;;-0.30;69.50;;;;;;5048017;28;20496;-75
2022/01/15 08:04:16;;;;;;;39.88;18.13;;;-0.20;69.70;;;;;;5050289;28;20025;-75
2022/01/15 08:06:42;;;;;;;33.50;16.50;;;-0.20;69.80;;;;;;5050673;28;20021;-76
2022/01/15 08:09:08;;;;;;;37.85;17.67;;;-0.10;69.80;;;;;;5060947;28;20037;-76
2022/01/15 08:11:34;;;;;;;33.83;16.88;;;-0.10;69.90;;;;;;5054227;28;20074;-76
2022/01/15 08:14:00;;;;;;;30.98;15.27;;;0.00;69.90;;;;;;5055325;28;20481;-76
2022/01/15 08:16:26;;;;;;;40.20;16.35;;;0.10;70.00;;;;;;5052370;28;20048;-76
2022/01/15 08:18:51;;;;;;;26.98;14.77;;;0.20;70.10;;;;;;5062015;28;20025;-75
2022/01/15 08:21:17;;;;;;;39.78;16.27;;;0.20;70.00;;;;;;5057541;28;20107;-76
2022/01/15 08:23:43;;;;;;;35.13;15.35;;;0.30;70.00;;;;;;5052413;28;20132;-76
2022/01/15 08:26:09;;;;;;;48.80;15.38;;;0.40;70.30;;;;;;5051281;28;20775;-75
2022/01/15 08:28:37;;;;;;;51.97;14.45;;;0.50;70.40;;;;;;5052734;28;20045;-75
2022/01/15 08:31:04;;;;;;;46.88;15.50;;;0.60;70.50;;;;;;5053324;28;20020;-76
2022/01/15 08:33:30;;;;;;;44.40;15.30;;;0.70;71.00;;;;;;5062421;28;20481;-75
2022/01/15 08:35:56;;;;;;;46.78;15.32;;;0.70;71.40;;;;;;5046565;28;20092;-76
2022/01/15 08:38:21;;;;;;;42.25;14.60;;;0.80;71.30;;;;;;5050768;28;20032;-76
2022/01/15 08:40:47;;;;;;;44.35;14.40;;;0.90;71.60;;;;;;5053971;28;20043;-76
2022/01/15 08:43:14;;;;;;;73.32;16.67;;;0.90;72.10;;;;;;5045217;28;20025;-76
2022/01/15 08:45:40;;;;;;;56.83;14.85;;;1.00;71.70;;;;;;5040727;28;20030;-76
2022/01/15 08:48:07;;;;;;;64.93;15.77;;;1.20;72.10;;;;;;5049655;28;20358;-76
2022/01/15 08:50:33;;;;;;;47.17;13.65;;;1.10;72.00;;;;;;5047970;28;20063;-76
2022/01/15 08:52:58;;;;;;;55.42;14.10;;;1.20;71.80;;;;;;5052702;28;20048;-76
2022/01/15 08:55:29;;;;;;;55.45;23.30;;;1.30;72.10;;;;;;5053446;28;20037;-76
2022/01/15 08:57:58;;;;;;;49.63;19.58;;;1.30;72.40;;;;;;5042870;28;20071;-76
2022/01/15 09:00:24;;;;;;;71.40;31.25;;;1.40;72.60;;;;;;5041314;28;20074;-77
2022/01/15 09:02:50;;;;;;;45.03;18.17;;;1.50;72.50;;;;;;5052759;28;20037;-77
2022/01/15 09:05:16;;;;;;;44.10;17.55;;;1.50;72.40;;;;;;5050663;28;20017;-77
2022/01/15 09:07:42;;;;;;;45.97;13.27;;;1.60;72.30;;;;;;5054014;28;20501;-77
2022/01/15 09:10:08;;;;;;;50.67;14.10;;;1.70;72.30;;;;;;5037726;28;20021;-76
2022/01/15 09:12:34;;;;;;;46.08;12.68;;;1.70;72.10;;;;;;5052679;28;20484;-77
2022/01/15 09:15:00;;;;;;;43.35;14.23;;;1.70;71.50;;;;;;5037104;28;20033;-76
2022/01/15 09:17:26;;;;;;;41.95;12.68;;;1.80;71.80;;;;;;5052152;28;20025;-76
2022/01/15 09:19:55;;;;;;;56.83;14.00;;;1.80;71.80;;;;;;5059499;28;20024;-77
2022/01/15 09:22:22;;;;;;;58.15;14.02;;;1.90;71.70;;;;;;5046476;28;20112;-76
2022/01/15 09:24:47;;;;;;;47.40;14.57;;;2.00;72.20;;;;;;5053215;28;20386;-76
2022/01/15 09:30:15;;;;;;;40.45;14.10;;;2.10;72.70;;;;;;5051248;28;21667;-76
2022/01/15 09:32:49;;;;;;;62.97;14.32;;;2.10;72.80;;;;;;5050857;28;20063;-76
2022/01/15 09:35:18;;;;;;;37.83;14.07;;;2.20;73.30;;;;;;5059168;28;20046;-76
2022/01/15 09:37:43;;;;;;;47.08;12.40;;;2.30;73.20;;;;;;5073140;28;20028;-75
2022/01/15 09:40:10;;;;;;;49.95;15.27;;;2.40;73.30;;;;;;5053709;28;20116;-75
2022/01/15 09:42:39;;;;;;;63.30;15.55;;;2.50;73.30;;;;;;5053553;28;20028;-75
2022/01/15 09:45:06;;;;;;;54.95;15.13;;;2.80;73.50;;;;;;5053579;28;20017;-75
2022/01/15 09:47:32;;;;;;;45.38;16.33;;;2.60;72.90;;;;;;5053555;28;20032;-75
2022/01/15 09:49:58;;;;;;;47.65;14.45;;;2.80;73.10;;;;;;5058928;28;20025;-75
2022/01/15 09:52:25;;;;;;;37.92;11.27;;;2.70;73.00;;;;;;5072936;28;20024;-75
2022/01/15 09:54:51;;;;;;;35.30;11.75;;;2.80;73.10;;;;;;5073409;28;20067;-75
2022/01/15 09:57:17;;;;;;;46.47;13.23;;;2.80;73.00;;;;;;5071775;28;20036;-75
2022/01/15 09:59:44;;;;;;;39.08;12.00;;;2.90;73.10;;;;;;5054144;28;20028;-76
2022/01/15 10:02:09;;;;;;;47.72;12.18;;;2.90;73.10;;;;;;5053158;28;20032;-76
2022/01/15 10:04:35;;;;;;;27.92;10.63;;;3.00;73.00;;;;;;5050515;28;20029;-74
2022/01/15 10:07:07;;;;;;;28.95;10.85;;;3.00;73.10;;;;;;5071755;28;20469;-74
2022/01/15 10:09:33;;;;;;;27.45;10.38;;;3.10;73.10;;;;;;5073114;28;20054;-74
2022/01/15 10:11:59;;;;;;;27.88;11.15;;;3.20;72.90;;;;;;5071648;28;20385;-74
2022/01/15 10:14:32;;;;;;;31.95;10.00;;;3.20;72.90;;;;;;5071845;28;20028;-74
2022/01/15 10:17:00;;;;;;;22.73;10.88;;;3.20;72.80;;;;;;5049533;28;20041;-75
2022/01/15 10:19:34;;;;;;;26.35;10.25;;;3.30;72.80;;;;;;5050815;28;20025;-75
2022/01/15 10:22:16;;;;;;;24.27;9.73;;;3.50;73.00;;;;;;5052579;28;20029;-75
2022/01/15 10:24:51;;;;;;;28.27;11.15;;;3.40;73.00;;;;;;5050814;28;20123;-74
2022/01/15 10:27:18;;;;;;;26.58;10.18;;;3.40;72.80;;;;;;5050732;28;20038;-75
2022/01/15 10:29:58;;;;;;;28.45;10.40;;;3.40;72.40;;;;;;5049784;28;20106;-74
2022/01/15 10:32:25;;;;;;;24.15;9.50;;;3.70;73.10;;;;;;5050601;28;20359;-74
2022/01/15 10:34:51;;;;;;;22.08;10.32;;;3.50;72.50;;;;;;5049392;28;20090;-74
2022/01/15 10:37:21;;;;;;;32.78;15.68;;;3.50;72.60;;;;;;5050637;28;20048;-74
2022/01/15 10:39:56;;;;;;;28.98;12.88;;;3.70;72.80;;;;;;5050671;28;20163;-74
2022/01/15 10:42:23;;;;;;;27.90;12.77;;;3.60;72.80;;;;;;5049766;28;20512;-74
2022/01/15 10:44:50;;;;;;;61.13;34.15;;;3.70;72.70;;;;;;5050978;28;20025;-74
2022/01/15 10:47:18;;;;;;;32.75;18.95;;;3.70;72.50;;;;;;5051675;28;20039;-74
2022/01/15 10:49:45;;;;;;;66.38;37.35;;;3.70;72.60;;;;;;5052017;28;20039;-74
2022/01/15 10:52:22;;;;;;;27.42;12.48;;;3.70;72.50;;;;;;5055831;28;20485;-74
2022/01/15 10:55:10;;;;;;;28.58;13.13;;;3.80;72.70;;;;;;5053571;28;20037;-74
2022/01/15 10:57:37;;;;;;;69.60;35.22;;;3.80;72.60;;;;;;5050235;28;20499;-74
2022/01/15 11:00:18;;;;;;;28.45;12.27;;;3.80;72.40;;;;;;5063440;28;20400;-73
2022/01/15 11:02:50;;;;;;;64.45;33.30;;;3.90;72.50;;;;;;5051463;28;20017;-74
2022/01/15 11:05:32;;;;;;;30.83;14.40;;;3.90;72.30;;;;;;5048855;28;20064;-74
2022/01/15 11:08:22;;;;;;;30.05;13.38;;;3.90;72.50;;;;;;5051287;28;20039;-74
2022/01/15 11:11:02;;;;;;;26.52;11.73;;;4.00;72.80;;;;;;5042075;28;20371;-74
2022/01/15 11:13:31;;;;;;;28.88;12.70;;;4.00;72.40;;;;;;5050627;28;20079;-74
2022/01/15 11:16:02;;;;;;;28.65;12.98;;;4.00;72.40;;;;;;5052284;28;20086;-74
2022/01/15 11:18:32;;;;;;;32.95;15.88;;;4.10;72.40;;;;;;5052506;28;20294;-74
2022/01/15 11:21:02;;;;;;;29.77;14.23;;;4.10;72.30;;;;;;5051106;28;20063;-73
2022/01/15 11:23:29;;;;;;;33.05;15.40;;;4.20;72.20;;;;;;5052161;28;20033;-73
2022/01/15 11:25:58;;;;;;;31.48;13.85;;;4.20;72.10;;;;;;5051028;28;20032;-73
2022/01/15 11:28:30;;;;;;;32.88;14.15;;;4.20;72.10;;;;;;5051851;28;20049;-73
2022/01/15 11:31:02;;;;;;;33.47;14.45;;;4.20;72.10;;;;;;5052364;28;20033;-73
2022/01/15 11:33:31;;;;;;;32.05;13.73;;;4.30;72.10;;;;;;5054858;28;20492;-74
2022/01/15 11:35:57;;;;;;;36.83;15.88;;;4.30;72.00;;;;;;5074634;28;20362;-74
2022/01/15 11:38:43;;;;;;;36.53;16.38;;;4.30;72.00;;;;;;5075729;28;20039;-73
2022/01/15 11:41:27;;;;;;;33.13;15.07;;;4.40;72.10;;;;;;5075946;28;20153;-74
2022/01/15 11:43:58;;;;;;;34.55;14.75;;;4.40;72.00;;;;;;5075792;28;20033;-73
2022/01/15 11:46:29;;;;;;;34.80;14.73;;;4.40;71.70;;;;;;5074143;28;20040;-73
2022/01/15 11:49:23;;;;;;;30.92;14.93;;;4.30;71.60;;;;;;5065359;28;20043;-73
2022/01/15 11:51:52;;;;;;;28.38;13.70;;;4.30;71.90;;;;;;5055764;28;20488;-74
2022/01/15 11:54:18;;;;;;;36.17;14.68;;;4.30;71.50;;;;;;5054468;28;20460;-74
2022/01/15 11:56:44;;;;;;;29.02;13.75;;;4.50;71.90;;;;;;5054214;28;20128;-73
2022/01/15 11:59:25;;;;;;;31.73;14.23;;;4.20;71.60;;;;;;5056433;28;20086;-73
2022/01/15 12:01:51;;;;;;;28.63;14.00;;;4.20;72.00;;;;;;5075653;28;20025;-73
2022/01/15 12:04:40;;;;;;;29.80;13.27;;;4.20;71.70;;;;;;5059578;28;20402;-74
2022/01/15 12:07:05;;;;;;;33.67;13.27;;;4.20;72.30;;;;;;5055452;28;20017;-74
2022/01/15 12:09:35;;;;;;;30.58;13.82;;;4.20;72.00;;;;;;5055310;28;20112;-74
2022/01/15 12:12:34;;;;;;;28.25;13.68;;;4.20;72.20;;;;;;5054401;28;20033;-74
2022/01/15 12:15:06;;;;;;;29.33;13.13;;;4.20;72.30;;;;;;5064952;28;20372;-74
2022/01/15 12:17:43;;;;;;;32.63;13.77;;;4.20;72.40;;;;;;5072448;28;20037;-74
2022/01/15 12:20:18;;;;;;;31.52;13.95;;;4.20;72.60;;;;;;5053796;28;20025;-75
2022/01/15 12:22:46;;;;;;;28.20;13.20;;;4.30;72.50;;;;;;5054816;28;20481;-75
2022/01/15 12:25:30;;;;;;;28.25;14.23;;;4.30;72.20;;;;;;5053680;28;20029;-75
2022/01/15 12:27:57;;;;;;;49.40;22.05;;;4.30;72.30;;;;;;5054872;28;20032;-75
2022/01/15 12:30:28;;;;;;;239.77;108.05;;;4.30;72.10;;;;;;5054937;28;20049;-75
2022/01/15 12:32:55;;;;;;;56.00;27.85;;;4.30;72.10;;;;;;5035239;28;20025;-75
2022/01/15 12:35:28;;;;;;;50.80;25.25;;;4.30;72.10;;;;;;5056435;28;20428;-75
2022/01/15 12:37:56;;;;;;;33.15;15.90;;;4.30;72.10;;;;;;5063712;28;20064;-75
2022/01/15 12:40:38;;;;;;;28.48;14.80;;;4.30;72.00;;;;;;5040978;28;20022;-75
2022/01/15 12:43:11;;;;;;;28.33;13.57;;;4.40;72.40;;;;;;5033159;28;20033;-75
2022/01/15 12:45:39;;;;;;;33.97;14.77;;;4.20;72.10;;;;;;5051308;28;20653;-74
2022/01/15 12:48:07;;;;;;;34.53;19.35;;;4.20;72.50;;;;;;5053105;28;20385;-74
2022/01/15 12:51:06;;;;;;;28.95;13.95;;;4.20;72.20;;;;;;5059450;28;20021;-75
2022/01/15 12:53:35;;;;;;;28.33;13.48;;;4.30;73.00;;;;;;5037431;28;20615;-75
2022/01/15 12:56:12;;;;;;;28.08;12.48;;;4.40;72.40;;;;;;5054115;28;20040;-74
2022/01/15 12:58:40;;;;;;;37.22;12.60;;;4.20;72.30;;;;;;5052109;28;20024;-74
2022/01/15 13:01:10;;;;;;;41.88;21.52;;;4.20;72.20;;;;;;5041528;28;20021;-75
2022/01/15 13:03:38;;;;;;;39.13;19.73;;;4.10;72.20;;;;;;5048751;28;20018;-74
2022/01/15 13:06:05;;;;;;;30.10;13.55;;;4.10;72.30;;;;;;5056929;28;20029;-74
2022/01/15 13:08:34;;;;;;;47.33;14.27;;;4.10;72.40;;;;;;5053474;28;20028;-74
2022/01/15 13:11:19;;;;;;;45.10;21.27;;;4.20;72.60;;;;;;5053811;28;20489;-74
2022/01/15 13:13:47;;;;;;;37.45;20.10;;;4.10;72.60;;;;;;5053689;28;20051;-74
2022/01/15 13:16:19;;;;;;;28.55;13.25;;;4.20;72.80;;;;;;5053790;28;20037;-74